Terminal Aerodrome Forecast
Issued by NWS

Home | Current Version | Previous Version | Text Only | Print | Product List | Glossary On
Versions: 1 2 3 4 5 6 7 8 9 10 11 12 13 14 15 16 17 18 19 20 21 22 23 24 25 26 27 28 29 30
281
FTUS46 KLOX 201024 AAA
TAFSBA
TAF AMD
KSBA 201024Z 2010/2106 VRB03KT P6SM -RA VCSH SCT050 OVC060
     FM201100 10012KT 5SM -RA BR BKN015 OVC025
     FM201500 11018G28KT 2SM RA BR BKN007 OVC015
     FM201900 27020G30KT 4SM -SHRA BR BKN015 OVC025
     FM210200 30015KT P6SM VCSH BKN025=

USA.gov is the U.S. government's official web portal to all federal, state and local government web resources and services.